Time;durP1;ratioP1;P1;durP2;ratioP2;P2;SDS_P1;SDS_P2;PMS_P1;PMS_P2;Temp;Humidity;BMP_temperature;BMP_pressure;BME280_temperature;BME280_humidity;BME280_pressure;Samples;Min_cycle;Max_cycle;Signal;HPM_P1;HPM_P2
2022/06/30 00:01:17;;;;;;;15.30;9.97;;;;;;;22.07;62.15;93704.09;5049598;28;20204;-65
2022/06/30 00:04:02;;;;;;;19.70;12.03;;;;;;;22.07;64.58;93686.97;5046126;28;20676;-65
2022/06/30 00:06:46;;;;;;;12.97;10.73;;;;;;;21.99;62.25;93691.72;5051257;28;20594;-65
2022/06/30 00:09:30;;;;;;;11.93;10.83;;;;;;;21.81;65.44;93694.81;5039566;28;20559;-65
2022/06/30 00:12:14;;;;;;;13.43;11.27;;;;;;;21.90;64.99;93692.91;5048439;28;20220;-65
2022/06/30 00:14:59;;;;;;;14.73;11.67;;;;;;;22.04;64.96;93688.28;5049922;28;20201;-65
2022/06/30 00:17:43;;;;;;;12.77;11.37;;;;;;;22.12;63.27;93694.22;5045077;28;20209;-65
2022/06/30 00:20:27;;;;;;;15.40;10.90;;;;;;;22.00;63.63;93699.63;5047571;28;20689;-65
2022/06/30 00:23:11;;;;;;;11.50;10.33;;;;;;;22.08;63.62;93694.13;5048335;28;20302;-65
2022/06/30 00:25:56;;;;;;;16.87;11.10;;;;;;;22.11;63.02;93697.72;5050382;28;20296;-65
2022/06/30 00:28:40;;;;;;;13.93;10.80;;;;;;;21.98;64.86;93691.00;5050856;28;20240;-65
2022/06/30 00:31:24;;;;;;;15.00;11.07;;;;;;;22.04;62.30;93690.41;5044024;28;20252;-64
2022/06/30 00:34:08;;;;;;;12.93;10.30;;;;;;;21.87;62.74;93686.41;5050086;28;20205;-64
2022/06/30 00:36:52;;;;;;;12.90;11.33;;;;;;;21.67;63.84;93683.03;5049736;28;20559;-65
2022/06/30 00:39:36;;;;;;;14.33;11.13;;;;;;;21.72;63.75;93678.91;5048722;28;20209;-66
2022/06/30 00:42:19;;;;;;;15.23;9.60;;;;;;;21.60;62.88;93670.03;5043216;28;20240;-65
2022/06/30 00:45:04;;;;;;;15.47;10.93;;;;;;;21.54;63.12;93661.34;5049571;28;20205;-66
2022/06/30 00:47:48;;;;;;;15.70;12.97;;;;;;;21.50;63.46;93661.22;5047735;28;20666;-65
2022/06/30 00:50:32;;;;;;;15.40;13.93;;;;;;;21.37;63.90;93655.19;5043892;28;20265;-65
2022/06/30 00:53:17;;;;;;;15.93;12.80;;;;;;;21.96;61.42;93658.84;5047339;28;20202;-65
2022/06/30 00:56:06;;;;;;;20.53;14.67;;;;;;;21.48;62.28;93652.63;5046476;28;20236;-66
2022/06/30 00:58:52;;;;;;;19.03;16.63;;;;;;;21.19;63.23;93657.53;5044171;28;20627;-65
2022/06/30 01:01:37;;;;;;;17.40;15.00;;;;;;;21.01;64.62;93648.47;5047342;28;20205;-65
2022/06/30 01:04:21;;;;;;;18.37;14.10;;;;;;;20.94;64.60;93649.69;5048714;28;20233;-65
2022/06/30 01:07:06;;;;;;;15.63;13.40;;;;;;;20.93;63.71;93643.25;5049643;28;20221;-65
2022/06/30 01:12:52;;;;;;;24.47;16.80;;;;;;;21.34;62.16;93644.41;5048183;28;20201;-65
2022/06/30 01:15:36;;;;;;;21.57;17.53;;;;;;;20.91;63.37;93645.34;5048784;28;20571;-65
2022/06/30 01:18:20;;;;;;;26.73;18.30;;;;;;;20.68;63.56;93635.41;5044433;28;20914;-65
2022/06/30 01:21:04;;;;;;;25.10;18.93;;;;;;;20.55;65.28;93639.34;5038537;28;20261;-65
2022/06/30 01:23:48;;;;;;;29.67;17.00;;;;;;;20.56;64.21;93643.59;5047872;28;20273;-65
2022/06/30 01:26:32;;;;;;;22.37;15.63;;;;;;;20.50;64.00;93644.16;5049752;28;20227;-65
2022/06/30 01:29:16;;;;;;;18.00;15.07;;;;;;;20.43;63.90;93645.38;5046353;28;20212;-65
2022/06/30 01:32:00;;;;;;;18.70;14.67;;;;;;;20.46;64.15;93643.31;5048906;28;20233;-63
2022/06/30 01:34:44;;;;;;;15.40;13.80;;;;;;;20.58;64.41;93644.41;5049660;28;20237;-62
2022/06/30 01:37:54;;;;;;;16.80;13.80;;;;;;;20.39;63.76;93645.25;5036881;28;20196;-65
2022/06/30 01:40:37;;;;;;;16.90;13.50;;;;;;;20.30;65.38;93643.53;5046241;28;20201;-65
2022/06/30 01:43:21;;;;;;;18.03;16.13;;;;;;;20.30;64.47;93637.84;5044884;28;20283;-64
2022/06/30 01:46:05;;;;;;;22.50;17.53;;;;;;;20.20;65.23;93646.06;5047192;28;20208;-64
2022/06/30 01:48:50;;;;;;;28.07;15.83;;;;;;;20.33;63.78;93644.34;5050245;28;20248;-65
2022/06/30 01:51:34;;;;;;;20.93;15.53;;;;;;;20.30;63.38;93643.53;5042967;28;20636;-64
2022/06/30 01:54:18;;;;;;;21.23;14.93;;;;;;;20.28;63.76;93651.28;5050176;28;20189;-65
2022/06/30 01:57:03;;;;;;;21.43;16.80;;;;;;;20.24;64.15;93656.84;5053042;28;20591;-64
2022/06/30 01:59:47;;;;;;;25.17;17.57;;;;;;;20.08;64.22;93660.63;5051846;28;20236;-64
2022/06/30 02:02:31;;;;;;;30.20;19.70;;;;;;;20.03;65.16;93655.47;5052941;28;20686;-64
2022/06/30 02:05:17;;;;;;;27.93;19.80;;;;;;;20.01;65.18;93652.56;5051951;28;20206;-64
2022/06/30 02:08:01;;;;;;;22.77;18.53;;;;;;;20.15;64.02;93664.41;5051896;28;20205;-64
2022/06/30 02:10:45;;;;;;;25.90;18.07;;;;;;;20.06;64.28;93659.81;5051616;28;20268;-64
2022/06/30 02:13:29;;;;;;;24.47;17.33;;;;;;;20.22;63.93;93660.34;5048663;28;20201;-64
2022/06/30 02:16:13;;;;;;;23.33;16.50;;;;;;;20.07;64.31;93655.59;5052307;28;20321;-64
2022/06/30 02:18:57;;;;;;;21.73;16.10;;;;;;;20.15;63.57;93655.84;5053263;28;20710;-65
2022/06/30 02:21:41;;;;;;;26.93;16.50;;;;;;;19.96;63.88;93656.66;5049970;28;20286;-65
2022/06/30 02:24:25;;;;;;;21.87;16.23;;;;;;;20.03;63.51;93664.00;5055933;28;20287;-63
2022/06/30 02:27:09;;;;;;;23.30;18.00;;;;;;;19.99;63.51;93655.34;5052652;28;20660;-64
2022/06/30 02:29:53;;;;;;;25.00;17.47;;;;;;;19.73;64.23;93653.13;5051257;28;20205;-63
2022/06/30 02:32:37;;;;;;;20.97;15.57;;;;;;;19.85;63.54;93652.06;5052201;28;20201;-64
2022/06/30 02:35:21;;;;;;;21.73;16.03;;;;;;;19.88;62.96;93645.75;5051581;28;20213;-64
2022/06/30 02:38:10;;;;;;;22.40;16.97;;;;;;;19.89;62.96;93647.22;5051476;28;20202;-64
2022/06/30 02:40:54;;;;;;;22.00;17.40;;;;;;;19.92;63.16;93645.19;5048834;28;20710;-64
2022/06/30 02:43:38;;;;;;;26.53;17.20;;;;;;;19.96;64.09;93654.56;5046927;28;20212;-64
2022/06/30 02:46:22;;;;;;;23.57;18.33;;;;;;;19.91;63.67;93655.81;5049052;28;20240;-64
2022/06/30 02:49:06;;;;;;;24.50;17.07;;;;;;;19.88;63.44;93654.28;5045901;28;20270;-64
2022/06/30 02:51:50;;;;;;;21.43;17.13;;;;;;;19.73;64.34;93658.06;5047382;28;20252;-64
2022/06/30 02:54:34;;;;;;;29.10;19.20;;;;;;;19.68;64.56;93668.59;5050142;28;20201;-64
2022/06/30 02:57:18;;;;;;;27.00;20.03;;;;;;;19.70;65.36;93670.75;5047208;28;20268;-64
2022/06/30 03:00:05;;;;;;;24.63;18.53;;;;;;;19.81;63.28;93672.56;5050128;28;20210;-64
2022/06/30 03:02:50;;;;;;;25.50;17.47;;;;;;;19.95;63.39;93672.28;5052296;28;20241;-64
2022/06/30 03:05:33;;;;;;;27.73;19.40;;;;;;;19.79;64.58;93678.91;5047467;28;20205;-65
2022/06/30 03:08:17;;;;;;;31.43;22.23;;;;;;;19.71;65.93;93678.63;5052129;28;20217;-65
2022/06/30 03:11:01;;;;;;;30.03;22.43;;;;;;;20.02;64.06;93671.09;5051543;28;20209;-67
2022/06/30 03:13:45;;;;;;;29.37;21.20;;;;;;;19.84;63.12;93684.72;5048164;28;20288;-71
2022/06/30 03:16:29;;;;;;;42.37;21.90;;;;;;;19.62;64.83;93676.91;5045437;28;20205;-73
2022/06/30 03:19:13;;;;;;;38.03;23.43;;;;;;;19.67;64.24;93683.44;5049854;28;20333;-70
2022/06/30 03:21:57;;;;;;;35.83;24.63;;;;;;;19.83;63.65;93683.25;5048472;28;20264;-77
2022/06/30 03:24:41;;;;;;;39.10;26.07;;;;;;;19.69;64.57;93692.75;5051573;28;20240;-74
2022/06/30 03:27:25;;;;;;;37.17;25.03;;;;;;;19.70;64.45;93688.53;5042620;28;20697;-74
2022/06/30 03:30:10;;;;;;;36.47;23.60;;;;;;;19.81;63.66;93686.03;5045906;28;20294;-74
2022/06/30 03:32:54;;;;;;;33.10;21.93;;;;;;;19.81;63.43;93686.03;5051651;28;20242;-79
2022/06/30 03:35:38;;;;;;;40.77;20.53;;;;;;;20.39;61.52;93690.06;5048372;28;20247;-74
2022/06/30 03:38:22;;;;;;;34.90;21.23;;;;;;;20.20;62.01;93697.25;5043427;28;20619;-74
2022/06/30 03:41:06;;;;;;;31.07;20.33;;;;;;;19.90;64.14;93699.13;5049249;28;20571;-78
2022/06/30 03:43:49;;;;;;;25.60;20.33;;;;;;;20.08;62.44;93691.19;5032203;28;20212;-74
2022/06/30 03:46:33;;;;;;;29.33;18.93;;;;;;;20.22;62.16;93694.50;5043365;28;20303;-74
2022/06/30 03:49:17;;;;;;;27.90;20.23;;;;;;;20.62;60.88;93694.31;5050830;28;20557;-78
2022/06/30 03:52:01;;;;;;;32.27;21.57;;;;;;;20.46;61.67;93695.28;5051035;28;20748;-75
2022/06/30 03:54:46;;;;;;;39.03;24.53;;;;;;;20.39;62.06;93690.78;5045555;28;20571;-72
2022/06/30 03:57:30;;;;;;;47.67;27.57;;;;;;;20.41;62.65;93688.00;5051119;28;20201;-72
2022/06/30 04:00:14;;;;;;;34.53;24.23;;;;;;;20.51;63.05;93696.13;5049715;28;20581;-73
2022/06/30 04:02:58;;;;;;;31.00;22.83;;;;;;;20.80;61.08;93697.72;5047573;28;20829;-71
2022/06/30 04:05:42;;;;;;;34.67;22.87;;;;;;;20.74;61.19;93694.69;5051066;28;20224;-69
2022/06/30 04:08:26;;;;;;;33.53;21.80;;;;;;;20.63;61.52;93695.75;5046465;28;20216;-71
2022/06/30 04:11:10;;;;;;;32.07;22.10;;;;;;;20.73;62.04;93690.38;5048958;28;20259;-69
2022/06/30 04:13:54;;;;;;;27.00;21.40;;;;;;;20.98;62.07;93684.72;5046341;28;20217;-68
2022/06/30 04:16:38;;;;;;;31.13;22.20;;;;;;;21.07;62.49;93691.38;5045368;28;20209;-66
2022/06/30 04:19:22;;;;;;;33.57;22.07;;;;;;;21.19;61.83;93691.75;5048297;28;20205;-65
2022/06/30 04:22:07;;;;;;;31.03;21.67;;;;;;;21.27;61.43;93691.25;5050089;28;20625;-64
2022/06/30 04:24:51;;;;;;;35.33;20.77;;;;;;;21.49;61.66;93689.00;5054978;28;20303;-65
2022/06/30 04:27:35;;;;;;;26.33;22.13;;;;;;;21.59;61.79;93694.97;5044599;28;20580;-64
2022/06/30 04:33:23;;;;;;;32.87;23.37;;;;;;;21.94;61.88;93690.88;5047416;28;20248;-64
2022/06/30 04:36:07;;;;;;;32.60;23.97;;;;;;;22.10;60.23;93696.28;5075858;28;20726;-64
2022/06/30 04:38:51;;;;;;;31.93;22.40;;;;;;;22.29;59.30;93697.44;5042778;28;20268;-64
2022/06/30 04:41:36;;;;;;;37.97;23.30;;;;;;;22.54;58.67;93690.91;5057126;28;20283;-64
2022/06/30 04:44:20;;;;;;;35.97;22.90;;;;;;;22.51;58.70;93687.28;5050471;28;20272;-64
2022/06/30 04:47:04;;;;;;;29.77;21.57;;;;;;;22.57;58.90;93689.56;5046693;28;20708;-64
2022/06/30 04:49:48;;;;;;;30.50;20.87;;;;;;;22.80;59.26;93691.53;5050859;28;20336;-63
2022/06/30 04:52:34;;;;;;;24.23;19.67;;;;;;;22.92;59.16;93683.22;5050148;28;20252;-63
2022/06/30 04:55:18;;;;;;;27.27;19.63;;;;;;;23.12;58.54;93682.19;5046388;28;20197;-63
2022/06/30 04:58:02;;;;;;;23.90;17.77;;;;;;;23.21;59.45;93675.22;5050376;28;20749;-64
2022/06/30 05:00:47;;;;;;;21.33;18.47;;;;;;;23.35;59.56;93664.06;5048868;28;20220;-64
2022/06/30 05:03:32;;;;;;;19.03;15.80;;;;;;;23.42;58.95;93657.06;5046876;28;20837;-64
2022/06/30 05:06:16;;;;;;;22.40;16.67;;;;;;;23.54;58.14;93662.31;5049082;28;20197;-64
2022/06/30 05:09:00;;;;;;;20.40;15.53;;;;;;;23.73;58.47;93667.69;5043096;28;20225;-64
2022/06/30 05:11:44;;;;;;;19.27;16.53;;;;;;;23.84;58.92;93674.28;5037220;28;20202;-63
2022/06/30 05:14:28;;;;;;;16.30;14.63;;;;;;;23.72;60.54;93671.94;5044048;28;20232;-64
2022/06/30 05:17:12;;;;;;;21.20;17.13;;;;;;;24.13;58.23;93672.66;5048286;28;20276;-64
2022/06/30 05:19:56;;;;;;;20.10;16.63;;;;;;;24.24;58.27;93674.28;5043286;28;20206;-64
2022/06/30 05:22:40;;;;;;;21.73;14.87;;;;;;;24.34;58.50;93671.59;5044266;28;20206;-64
2022/06/30 05:28:27;;;;;;;14.57;12.47;;;;;;;24.64;58.54;93679.19;5052693;28;20220;-63
2022/06/30 05:31:10;;;;;;;12.27;10.47;;;;;;;24.88;58.38;93670.94;5047183;28;20319;-63
2022/06/30 05:33:54;;;;;;;17.77;11.40;;;;;;;25.09;58.27;93666.94;5049903;28;20237;-63
2022/06/30 05:36:38;;;;;;;15.27;11.17;;;;;;;24.92;56.93;93676.75;5074768;28;20252;-64
2022/06/30 05:39:22;;;;;;;16.23;10.07;;;;;;;25.11;56.82;93669.84;5049838;28;20308;-63
2022/06/30 05:42:06;;;;;;;11.53;9.10;;;;;;;25.21;56.76;93661.38;5045670;28;20249;-63
2022/06/30 05:44:50;;;;;;;10.43;9.33;;;;;;;25.16;57.05;93665.59;5052053;28;20651;-63
2022/06/30 05:47:44;;;;;;;12.20;7.60;;;;;;;25.41;57.45;93671.63;5044575;28;20213;-63
2022/06/30 05:50:29;;;;;;;20.80;7.93;;;;;;;25.13;57.71;93678.47;5053691;28;20740;-63
2022/06/30 05:53:13;;;;;;;8.20;6.53;;;;;;;25.65;56.65;93681.25;5050209;28;20205;-63
2022/06/30 05:55:57;;;;;;;9.77;6.10;;;;;;;25.83;56.31;93680.72;5050791;28;20197;-63
2022/06/30 05:58:41;;;;;;;8.90;5.53;;;;;;;26.07;56.39;93677.38;5049960;28;20268;-63
2022/06/30 06:01:25;;;;;;;7.43;4.90;;;;;;;26.01;55.30;93678.03;5052571;28;20281;-63
2022/06/30 06:04:09;;;;;;;8.73;4.40;;;;;;;26.26;53.63;93684.75;5050667;28;20229;-63
2022/06/30 06:06:53;;;;;;;10.80;4.50;;;;;;;26.44;54.61;93689.91;5051139;28;20197;-63
2022/06/30 06:09:37;;;;;;;6.43;4.10;;;;;;;26.42;54.39;93684.16;5053365;28;20206;-63
2022/06/30 06:12:22;;;;;;;7.77;3.83;;;;;;;26.60;54.16;93674.97;5049297;28;20305;-63
2022/06/30 06:15:07;;;;;;;5.53;3.50;;;;;;;26.75;54.36;93668.59;5051361;28;20238;-63
2022/06/30 06:17:50;;;;;;;6.53;3.20;;;;;;;26.61;53.67;93674.22;5059584;28;20205;-63
2022/06/30 06:20:35;;;;;;;6.00;3.63;;;;;;;26.84;52.89;93658.59;5051123;28;20206;-63
2022/06/30 06:23:19;;;;;;;8.90;3.77;;;;;;;27.34;52.91;93663.19;5052240;28;20245;-63
2022/06/30 06:26:03;;;;;;;6.30;4.37;;;;;;;27.50;52.92;93654.59;5058866;28;20205;-63
2022/06/30 06:29:05;;;;;;;5.10;3.77;;;;;;;27.44;52.79;93656.75;5040323;28;20701;-63
2022/06/30 06:31:49;;;;;;;8.30;3.70;;;;;;;27.48;52.28;93648.09;5050643;28;20205;-64
2022/06/30 06:34:33;;;;;;;6.80;3.70;;;;;;;27.22;52.82;93648.75;5047082;28;20201;-63
2022/06/30 06:37:17;;;;;;;4.43;2.97;;;;;;;27.12;52.31;93658.03;5045694;28;20263;-63
2022/06/30 06:40:02;;;;;;;7.17;3.47;;;;;;;27.40;52.90;93663.22;5052418;28;20295;-64
2022/06/30 06:42:45;;;;;;;12.07;3.60;;;;;;;27.81;51.57;93658.31;5041159;28;20750;-64
2022/06/30 06:45:29;;;;;;;8.07;4.00;;;;;;;28.22;51.36;93659.09;5052075;28;20233;-63
2022/06/30 06:48:13;;;;;;;6.03;3.50;;;;;;;28.08;51.51;93656.19;5049698;28;20698;-63
2022/06/30 06:50:57;;;;;;;7.07;3.53;;;;;;;27.96;51.68;93656.19;5052631;28;20320;-63
2022/06/30 06:53:41;;;;;;;7.47;3.30;;;;;;;28.61;49.85;93656.22;5047858;28;20695;-63
2022/06/30 06:56:25;;;;;;;6.87;3.70;;;;;;;28.48;50.01;93662.00;5044100;28;20201;-63
2022/06/30 06:59:09;;;;;;;10.20;2.83;;;;;;;28.15;49.41;93663.41;5052264;28;20297;-64
2022/06/30 07:01:53;;;;;;;10.43;4.35;;;;;;;28.70;48.69;93657.66;5047556;28;20198;-64
2022/06/30 07:04:37;;;;;;;5.22;3.03;;;;;;;28.33;49.48;93656.97;5046757;28;20236;-65
2022/06/30 07:07:21;;;;;;;7.43;2.30;;;;;;;29.27;48.76;93658.25;5052297;28;20205;-65
2022/06/30 07:10:07;;;;;;;5.70;2.30;;;;;;;29.69;47.70;93660.28;5051144;28;20231;-65
2022/06/30 07:12:52;;;;;;;5.55;2.10;;;;;;;29.69;45.55;93657.38;5043059;28;20205;-65
2022/06/30 07:15:36;;;;;;;3.80;1.63;;;;;;;29.49;45.25;93657.50;5051762;28;20213;-65
2022/06/30 07:18:21;;;;;;;5.63;1.90;;;;;;;29.94;44.95;93658.00;5046142;28;20221;-65
2022/06/30 07:21:05;;;;;;;3.15;2.00;;;;;;;30.11;43.65;93657.19;5047448;28;20516;-64
2022/06/30 07:23:49;;;;;;;5.25;1.90;;;;;;;30.23;42.93;93656.38;5054604;28;20243;-63
2022/06/30 07:26:33;;;;;;;5.03;1.95;;;;;;;31.08;41.36;93663.63;5046375;28;20686;-65
2022/06/30 07:29:17;;;;;;;3.85;2.13;;;;;;;30.53;43.04;93664.13;5046806;28;20232;-65
2022/06/30 07:32:01;;;;;;;5.22;2.50;;;;;;;30.79;42.17;93669.69;5044272;28;20214;-65
2022/06/30 07:34:45;;;;;;;6.07;2.35;;;;;;;30.81;42.45;93654.47;5046671;28;20228;-65
2022/06/30 07:37:30;;;;;;;4.13;1.90;;;;;;;31.06;41.26;93663.66;5038219;28;20267;-63
2022/06/30 07:40:14;;;;;;;3.72;2.17;;;;;;;30.83;41.68;93654.44;5045545;28;20197;-63
2022/06/30 07:42:58;;;;;;;6.88;2.10;;;;;;;30.91;42.79;93665.94;5044907;28;20218;-64
2022/06/30 07:45:42;;;;;;;3.30;2.08;;;;;;;30.80;42.84;93653.75;5043983;28;20206;-63
2022/06/30 07:48:26;;;;;;;5.00;1.63;;;;;;;31.09;41.45;93651.31;5046419;28;20237;-63
2022/06/30 07:51:11;;;;;;;6.03;1.73;;;;;;;31.42;41.10;93657.44;5042378;28;20197;-63
2022/06/30 07:53:55;;;;;;;4.25;1.80;;;;;;;32.01;39.26;93659.63;5040298;28;20197;-64
2022/06/30 07:56:39;;;;;;;3.80;1.92;;;;;;;32.40;38.82;93663.44;5046902;28;20194;-63
2022/06/30 07:59:23;;;;;;;3.40;1.98;;;;;;;31.30;40.83;93660.50;5049049;28;20356;-64
2022/06/30 08:02:07;;;;;;;4.70;1.90;;;;;;;32.05;39.26;93650.88;5047075;28;20210;-64
2022/06/30 08:04:51;;;;;;;5.03;2.33;;;;;;;32.41;39.13;93641.63;5049604;28;20277;-64
2022/06/30 08:07:36;;;;;;;5.78;2.00;;;;;;;32.25;39.77;93641.91;5042715;28;20272;-65
2022/06/30 08:10:20;;;;;;;4.97;1.95;;;;;;;32.07;40.37;93639.97;5045704;28;20197;-64
2022/06/30 08:13:04;;;;;;;7.18;2.00;;;;;;;32.80;38.39;93632.31;5048430;28;20709;-64
2022/06/30 08:15:48;;;;;;;5.65;2.17;;;;;;;33.01;38.49;93632.69;5035620;28;20302;-64
2022/06/30 08:18:33;;;;;;;5.93;2.47;;;;;;;32.45;39.52;93635.78;5044115;28;20640;-64
2022/06/30 08:21:17;;;;;;;6.95;3.47;;;;;;;32.32;39.13;93634.53;5043812;28;20248;-65
2022/06/30 08:24:00;;;;;;;6.35;2.22;;;;;;;34.25;35.22;93636.72;5052979;28;20226;-65
2022/06/30 08:26:45;;;;;;;4.95;2.42;;;;;;;33.22;38.42;93634.47;5046852;28;20201;-65
2022/06/30 08:29:32;;;;;;;3.17;2.42;;;;;;;33.08;36.71;93636.91;5045475;28;20721;-65
2022/06/30 08:32:16;;;;;;;7.72;2.10;;;;;;;33.70;35.36;93635.00;5049872;28;20615;-66
2022/06/30 08:35:00;;;;;;;7.53;2.25;;;;;;;34.10;36.27;93639.94;5045814;28;20209;-66
2022/06/30 08:37:44;;;;;;;6.00;2.70;;;;;;;32.52;38.54;93628.44;5050399;28;20281;-66
2022/06/30 08:43:32;;;;;;;6.10;2.20;;;;;;;33.79;36.33;93633.34;5042754;28;20224;-66
2022/06/30 08:46:18;;;;;;;4.55;2.08;;;;;;;33.97;35.52;93624.22;5044699;28;20271;-67
2022/06/30 08:49:02;;;;;;;6.47;2.95;;;;;;;33.78;36.27;93622.47;5042025;28;20229;-66
2022/06/30 08:51:46;;;;;;;7.68;2.25;;;;;;;34.08;34.75;93622.50;5037493;28;20240;-67
2022/06/30 08:54:33;;;;;;;4.50;1.88;;;;;;;34.56;35.38;93628.00;5044497;28;20193;-67
2022/06/30 08:57:19;;;;;;;5.43;2.20;;;;;;;34.47;34.37;93622.34;5045170;28;20281;-67
2022/06/30 09:00:04;;;;;;;5.88;1.98;;;;;;;34.43;34.20;93624.66;5052588;28;20201;-67
2022/06/30 09:02:48;;;;;;;6.35;2.08;;;;;;;35.66;34.05;93612.69;5051884;28;20744;-66
2022/06/30 09:05:32;;;;;;;7.32;1.85;;;;;;;35.12;33.78;93608.38;5047139;28;20216;-66
2022/06/30 09:08:17;;;;;;;5.35;2.22;;;;;;;35.75;31.30;93616.09;5049081;28;20284;-66
2022/06/30 09:11:02;;;;;;;4.22;2.10;;;;;;;34.78;34.51;93619.44;5049600;28;20281;-67
2022/06/30 09:13:48;;;;;;;5.60;2.00;;;;;;;34.97;33.35;93619.66;5055614;28;20217;-66
2022/06/30 09:16:32;;;;;;;4.88;2.00;;;;;;;36.32;31.43;93609.25;5056308;28;20264;-66
2022/06/30 09:19:16;;;;;;;3.92;2.03;;;;;;;35.93;33.04;93614.81;5057088;28;20244;-65
2022/06/30 09:22:14;;;;;;;6.78;2.20;;;;;;;36.19;30.93;93622.81;5055251;28;20317;-66
2022/06/30 09:25:03;;;;;;;5.05;1.83;;;;;;;36.82;30.95;93617.88;5056177;28;20297;-65
2022/06/30 09:27:47;;;;;;;3.40;1.80;;;;;;;37.00;31.29;93620.19;5054069;28;20213;-66
2022/06/30 09:30:31;;;;;;;4.63;2.20;;;;;;;35.51;32.80;93614.56;5056638;28;20563;-66
2022/06/30 09:33:16;;;;;;;8.05;2.25;;;;;;;35.13;32.20;93619.22;5056999;28;21440;-65
2022/06/30 09:36:21;;;;;;;4.25;2.30;;;;;;;36.53;32.28;93605.69;5049771;28;20253;-65
2022/06/30 09:39:08;;;;;;;3.50;1.90;;;;;;;36.32;32.18;93611.47;5055392;28;20690;-65
2022/06/30 09:41:52;;;;;;;6.82;2.22;;;;;;;36.15;32.85;93611.25;5048527;28;20253;-65
2022/06/30 09:44:37;;;;;;;5.88;2.38;;;;;;;37.41;31.24;93607.09;5052879;28;20658;-65
2022/06/30 09:47:21;;;;;;;4.07;1.73;;;;;;;37.65;29.75;93600.41;5049216;28;20247;-65
2022/06/30 09:50:06;;;;;;;5.63;2.00;;;;;;;37.11;30.27;93600.84;5052172;28;20351;-65
2022/06/30 09:53:11;;;;;;;7.03;2.15;;;;;;;36.86;29.03;93600.22;5055674;28;20259;-65
2022/06/30 09:55:56;;;;;;;8.45;1.98;;;;;;;39.07;26.19;93612.38;5053292;28;20213;-65
2022/06/30 09:58:42;;;;;;;4.05;1.90;;;;;;;38.39;27.37;93613.66;5053937;28;20629;-65
2022/06/30 10:01:26;;;;;;;6.30;1.80;;;;;;;39.25;26.24;93602.81;5054810;28;20271;-66
2022/06/30 10:04:16;;;;;;;4.05;2.28;;;;;;;39.72;25.67;93609.56;5056334;28;20233;-65
2022/06/30 10:07:00;;;;;;;9.20;2.10;;;;;;;38.65;28.00;93606.75;5051732;28;20241;-65
2022/06/30 10:09:45;;;;;;;6.28;2.17;;;;;;;38.49;27.65;93601.56;5053254;28;20312;-65
2022/06/30 10:12:29;;;;;;;3.25;1.90;;;;;;;38.45;27.13;93601.72;5050408;28;20690;-66
2022/06/30 10:15:15;;;;;;;6.45;2.17;;;;;;;39.30;25.99;93598.19;5052374;28;20267;-66
2022/06/30 10:18:01;;;;;;;11.20;2.30;;;;;;;37.51;27.48;93586.97;5053688;28;20197;-66
2022/06/30 10:20:45;;;;;;;6.60;2.20;;;;;;;40.62;25.12;93595.06;5053004;28;20682;-66
2022/06/30 10:23:30;;;;;;;3.95;1.77;;;;;;;38.80;26.79;93584.16;5048385;28;20244;-66
2022/06/30 10:29:18;;;;;;;2.67;1.52;;;;;;;39.46;24.08;93594.56;5050104;28;20201;-66
2022/06/30 10:32:35;;;;;;;4.35;1.65;;;;;;;41.67;22.15;93580.22;5069629;28;20259;-66
2022/06/30 10:35:38;;;;;;;5.30;1.75;;;;;;;41.22;23.69;93590.66;5032727;28;20559;-66
2022/06/30 10:38:49;;;;;;;5.15;1.70;;;;;;;41.68;23.50;93585.28;5052789;28;20633;-66
2022/06/30 10:41:43;;;;;;;3.92;1.80;;;;;;;41.04;23.83;93584.16;5036113;28;20248;-66
2022/06/30 10:44:29;;;;;;;9.27;1.73;;;;;;;41.44;22.64;93589.50;5052289;28;20225;-66
2022/06/30 10:47:13;;;;;;;4.25;1.77;;;;;;;42.11;22.16;93580.75;5051458;28;20247;-66
2022/06/30 10:49:57;;;;;;;6.03;1.50;;;;;;;42.84;22.33;93575.97;5046211;28;20193;-66
2022/06/30 10:52:41;;;;;;;6.38;1.80;;;;;;;43.36;21.44;93575.81;5052318;28;20243;-66
2022/06/30 10:55:25;;;;;;;3.83;1.70;;;;;;;42.45;21.69;93574.50;5047980;28;20184;-67
2022/06/30 10:58:09;;;;;;;7.90;1.80;;;;;;;40.75;22.56;93572.41;5049280;28;20335;-66
2022/06/30 11:00:58;;;;;;;4.13;1.67;;;;;;;42.17;20.94;93573.81;5042467;28;20732;-66
2022/06/30 11:03:42;;;;;;;4.03;1.30;;;;;;;42.33;19.32;93570.00;5046903;28;20271;-67
2022/06/30 11:06:56;;;;;;;4.57;1.30;;;;;;;43.43;20.49;93570.97;5050818;28;20299;-67
2022/06/30 11:09:43;;;;;;;4.45;1.80;;;;;;;43.85;19.67;93564.00;5042502;28;20204;-66
2022/06/30 11:12:37;;;;;;;4.40;1.48;;;;;;;44.24;19.78;93565.97;5043622;28;20677;-66
2022/06/30 11:15:21;;;;;;;4.47;1.98;;;;;;;44.34;19.40;93562.38;5046630;28;20281;-66
2022/06/30 11:18:06;;;;;;;5.38;1.77;;;;;;;44.01;19.65;93568.91;5049379;28;20280;-66
2022/06/30 11:20:52;;;;;;;3.28;1.65;;;;;;;45.25;18.73;93569.72;5046479;28;20196;-67
2022/06/30 11:23:42;;;;;;;4.07;1.63;;;;;;;42.82;20.68;93555.44;5054255;28;20208;-67
2022/06/30 11:29:32;;;;;;;5.88;1.70;;;;;;;42.75;21.14;93541.06;5042700;28;20692;-71
2022/06/30 11:32:16;;;;;;;5.78;1.60;;;;;;;44.77;19.30;93552.97;5048240;28;20709;-68
2022/06/30 11:35:00;;;;;;;3.90;1.80;;;;;;;44.18;19.60;93539.75;5049554;28;20281;-68
2022/06/30 11:37:44;;;;;;;5.68;1.77;;;;;;;45.18;19.45;93548.03;5042151;28;20287;-70
2022/06/30 11:40:30;;;;;;;4.82;1.88;;;;;;;43.09;20.56;93534.66;5042472;28;20221;-68
2022/06/30 11:43:19;;;;;;;5.50;1.60;;;;;;;43.95;20.03;93528.66;5035963;28;20225;-68
2022/06/30 11:46:04;;;;;;;4.30;1.83;;;;;;;45.94;17.35;93535.38;5039424;28;20256;-72
2022/06/30 11:48:48;;;;;;;5.68;1.75;;;;;;;45.48;18.81;93531.19;5048494;28;20255;-68
2022/06/30 11:51:32;;;;;;;2.58;1.50;;;;;;;47.33;16.16;93539.94;5046478;28;20196;-69
2022/06/30 11:54:22;;;;;;;4.80;1.95;;;;;;;45.45;18.28;93536.53;5045827;28;20205;-70
2022/06/30 11:57:06;;;;;;;8.43;1.80;;;;;;;45.48;18.18;93531.88;5049477;28;20196;-68
2022/06/30 12:00:02;;;;;;;5.78;1.40;;;;;;;46.83;17.27;93528.91;5046889;28;20220;-70
2022/06/30 12:02:51;;;;;;;3.10;1.42;;;;;;;44.84;18.44;93525.13;5046754;28;20309;-68
2022/06/30 12:05:36;;;;;;;3.47;1.60;;;;;;;47.10;16.95;93521.72;5038738;28;20242;-70
2022/06/30 12:08:22;;;;;;;6.32;1.70;;;;;;;45.49;16.92;93520.75;5048474;28;20189;-69
2022/06/30 12:11:06;;;;;;;5.28;1.70;;;;;;;46.95;16.19;93519.81;5050624;28;20243;-69
2022/06/30 12:13:53;;;;;;;4.60;1.67;;;;;;;46.55;16.05;93514.59;5046927;28;20744;-68
2022/06/30 12:16:38;;;;;;;3.55;1.40;;;;;;;46.26;15.90;93504.13;5045736;28;20701;-72
2022/06/30 12:19:25;;;;;;;7.05;1.83;;;;;;;45.08;17.71;93514.63;5051072;28;20201;-70
2022/06/30 12:22:10;;;;;;;2.38;1.60;;;;;;;46.03;16.80;93509.56;5045035;28;20200;-70
2022/06/30 12:24:54;;;;;;;3.80;1.48;;;;;;;47.31;16.64;93516.34;5052129;28;20236;-71
2022/06/30 12:27:42;;;;;;;5.88;1.95;;;;;;;47.32;16.46;93508.84;5050307;28;20266;-68
2022/06/30 12:30:37;;;;;;;4.63;2.20;;;;;;;47.45;14.74;93508.59;5044403;28;20204;-71
2022/06/30 12:33:36;;;;;;;3.95;2.30;;;;;;;47.03;15.77;93512.56;5049597;28;20189;-70
2022/06/30 12:36:23;;;;;;;9.18;1.77;;;;;;;47.60;14.86;93502.94;5049494;28;20213;-68
2022/06/30 12:39:12;;;;;;;3.42;1.65;;;;;;;48.70;15.18;93509.75;5050249;28;20224;-68
2022/06/30 12:42:07;;;;;;;3.97;1.40;;;;;;;47.37;16.58;93503.28;5047301;28;20200;-69
2022/06/30 12:44:51;;;;;;;3.17;1.75;;;;;;;47.59;15.39;93497.88;5045872;28;20338;-69
2022/06/30 12:47:35;;;;;;;5.47;1.50;;;;;;;45.96;16.75;93502.66;5047665;28;20618;-70
2022/06/30 12:50:21;;;;;;;8.27;1.70;;;;;;;47.03;16.13;93491.78;5050428;28;20204;-70
2022/06/30 12:53:34;;;;;;;6.47;1.92;;;;;;;47.46;15.80;93489.94;5048140;28;20208;-68
2022/06/30 12:56:21;;;;;;;5.15;2.05;;;;;;;47.08;15.94;93498.81;5043250;28;20204;-68
2022/06/30 12:59:08;;;;;;;3.60;1.80;;;;;;;48.70;15.12;93491.91;5047921;28;20207;-70
2022/06/30 13:01:56;;;;;;;5.65;1.63;;;;;;;45.89;16.60;93479.41;5047799;28;20289;-70
2022/06/30 13:04:50;;;;;;;2.78;1.52;;;;;;;47.03;16.08;93474.00;5045673;28;20291;-68
2022/06/30 13:07:34;;;;;;;6.97;1.55;;;;;;;47.01;15.88;93480.06;5045514;28;20228;-69
2022/06/30 13:11:04;;;;;;;4.25;1.83;;;;;;;49.03;14.87;93489.88;5045577;28;20240;-69